Cleveland, Ohio
Traffic Map
Current Weather Conditions
Cleveland, Ohio
Broken Clouds
Broken Clouds

Feels Like: 7°
Wind Chill: Ceiling: 7000
Heat Index: Visibility: 10mi
Dew Point: Wind: 9mph
Humidity: 80% Direction: 50° (NE)
Pressure: 30.26in Gusts: 0mph
Raw Report DataKBKL 190153Z 05008KT 10SM BKN070 09/06 A3026 RMK AO2 SLP248 T00940061
Traffic Incident Summary
Active as of:
Severity:
Category:
InformationThere was an issue retrieving the traffic information for this location. Please try a different location or try again shortly.
Advertisements
At Last! Intellicast now available for iPhone and Android